Bar Mills, Maine
Current Conditions -  °F | °C
As of 4:51 AM on Saturday 25 Oct 2014 (Local Time) from KPWM Reporting Station
Overcast Overcast  
Wind Chill: 49°   Ceiling: 8000
Heat Index: 49°   Visibility: 10mi
Dew Point: 39°   Wind: 3mph
Humidity: 69%   Direction: 250°WSW
Pressure: 29.7"   Gusts: NA
Location:  43.61°N, 70.55°W
Report Text: KPWM 250851Z 25003KT 10SM OVC080 09/04 A2970 RMK AO2 SLP058 T00940039 55002
Loading
Personal Weather Stations






























Interactive Weather Map
Tropical Storm Tracking
New forecast layout! Learn more

10-Day Weather Forecast

Advertisements
Track Severe Weather on mobile